sensor_id;sensor_type;location;lat;lon;timestamp;temperature;humidity
66586;SHT30;53444;45.822;16.092;2022-08-19T00:01:10;24.75;56.48
66586;SHT30;53444;45.822;16.092;2022-08-19T00:03:38;24.64;56.80
66586;SHT30;53444;45.822;16.092;2022-08-19T00:06:05;24.41;57.59
66586;SHT30;53444;45.822;16.092;2022-08-19T00:08:32;24.37;57.76
66586;SHT30;53444;45.822;16.092;2022-08-19T00:10:59;24.44;57.80
66586;SHT30;53444;45.822;16.092;2022-08-19T00:13:25;24.37;58.01
66586;SHT30;53444;45.822;16.092;2022-08-19T00:15:53;23.92;59.32
66586;SHT30;53444;45.822;16.092;2022-08-19T00:18:20;24.16;58.70
66586;SHT30;53444;45.822;16.092;2022-08-19T00:20:48;23.96;59.39
66586;SHT30;53444;45.822;16.092;2022-08-19T00:23:15;24.16;58.89
66586;SHT30;53444;45.822;16.092;2022-08-19T00:25:42;24.09;59.37
66586;SHT30;53444;45.822;16.092;2022-08-19T00:28:09;23.99;59.90
66586;SHT30;53444;45.822;16.092;2022-08-19T00:30:36;23.95;59.92
66586;SHT30;53444;45.822;16.092;2022-08-19T00:33:03;24.08;59.62
66586;SHT30;53444;45.822;16.092;2022-08-19T00:35:29;23.82;60.57
66586;SHT30;53444;45.822;16.092;2022-08-19T00:37:58;23.69;60.91
66586;SHT30;53444;45.822;16.092;2022-08-19T00:40:25;23.76;60.85
66586;SHT30;53444;45.822;16.092;2022-08-19T00:42:52;23.86;60.53
66586;SHT30;53444;45.822;16.092;2022-08-19T00:45:22;23.78;60.75
66586;SHT30;53444;45.822;16.092;2022-08-19T00:47:49;23.72;60.93
66586;SHT30;53444;45.822;16.092;2022-08-19T00:50:18;23.66;60.96
66586;SHT30;53444;45.822;16.092;2022-08-19T00:52:48;23.47;61.42
66586;SHT30;53444;45.822;16.092;2022-08-19T00:55:21;23.30;61.70
66586;SHT30;53444;45.822;16.092;2022-08-19T00:57:53;23.25;61.61
66586;SHT30;53444;45.822;16.092;2022-08-19T01:00:22;23.31;61.37
66586;SHT30;53444;45.822;16.092;2022-08-19T01:02:49;23.12;62.03
66586;SHT30;53444;45.822;16.092;2022-08-19T01:05:19;23.31;61.59
66586;SHT30;53444;45.822;16.092;2022-08-19T01:07:47;23.34;61.76
66586;SHT30;53444;45.822;16.092;2022-08-19T01:10:19;23.37;62.12
66586;SHT30;53444;45.822;16.092;2022-08-19T01:12:47;23.17;62.87
66586;SHT30;53444;45.822;16.092;2022-08-19T01:15:23;22.93;63.83
66586;SHT30;53444;45.822;16.092;2022-08-19T01:17:52;23.03;63.82
66586;SHT30;53444;45.822;16.092;2022-08-19T01:20:22;23.10;63.55
66586;SHT30;53444;45.822;16.092;2022-08-19T01:22:52;23.12;63.63
66586;SHT30;53444;45.822;16.092;2022-08-19T01:25:26;23.37;63.08
66586;SHT30;53444;45.822;16.092;2022-08-19T01:27:54;23.47;62.64
66586;SHT30;53444;45.822;16.092;2022-08-19T01:30:23;23.59;62.39
66586;SHT30;53444;45.822;16.092;2022-08-19T01:32:51;23.62;62.30
66586;SHT30;53444;45.822;16.092;2022-08-19T01:35:20;23.69;61.91
66586;SHT30;53444;45.822;16.092;2022-08-19T01:37:52;23.72;61.79
66586;SHT30;53444;45.822;16.092;2022-08-19T01:40:21;23.75;61.68
66586;SHT30;53444;45.822;16.092;2022-08-19T01:42:49;23.68;61.36
66586;SHT30;53444;45.822;16.092;2022-08-19T01:45:17;23.88;60.43
66586;SHT30;53444;45.822;16.092;2022-08-19T01:47:44;23.99;59.91
66586;SHT30;53444;45.822;16.092;2022-08-19T01:50:11;24.00;59.37
66586;SHT30;53444;45.822;16.092;2022-08-19T01:52:40;24.05;58.95
66586;SHT30;53444;45.822;16.092;2022-08-19T01:55:16;24.05;58.95
66586;SHT30;53444;45.822;16.092;2022-08-19T01:57:46;24.08;59.70
66586;SHT30;53444;45.822;16.092;2022-08-19T02:00:16;24.02;60.76
66586;SHT30;53444;45.822;16.092;2022-08-19T02:02:43;23.89;61.67
66586;SHT30;53444;45.822;16.092;2022-08-19T02:05:11;23.85;61.47
66586;SHT30;53444;45.822;16.092;2022-08-19T02:07:38;23.82;61.70
66586;SHT30;53444;45.822;16.092;2022-08-19T02:10:10;23.86;61.06
66586;SHT30;53444;45.822;16.092;2022-08-19T02:12:37;23.89;61.45
66586;SHT30;53444;45.822;16.092;2022-08-19T02:15:05;23.82;62.20
66586;SHT30;53444;45.822;16.092;2022-08-19T02:17:33;23.79;62.53
66586;SHT30;53444;45.822;16.092;2022-08-19T02:20:00;23.79;62.49
66586;SHT30;53444;45.822;16.092;2022-08-19T02:22:27;23.71;62.47
66586;SHT30;53444;45.822;16.092;2022-08-19T02:24:54;23.79;61.90
66586;SHT30;53444;45.822;16.092;2022-08-19T02:27:23;23.82;61.46
66586;SHT30;53444;45.822;16.092;2022-08-19T02:29:50;23.61;61.60
66586;SHT30;53444;45.822;16.092;2022-08-19T02:32:18;23.71;61.10
66586;SHT30;53444;45.822;16.092;2022-08-19T02:34:45;23.83;60.67
66586;SHT30;53444;45.822;16.092;2022-08-19T02:37:12;23.86;60.55
66586;SHT30;53444;45.822;16.092;2022-08-19T02:39:53;24.00;60.07
66586;SHT30;53444;45.822;16.092;2022-08-19T02:42:19;23.45;62.96
66586;SHT30;53444;45.822;16.092;2022-08-19T02:44:47;23.12;64.17
66586;SHT30;53444;45.822;16.092;2022-08-19T02:47:14;22.93;65.20
66586;SHT30;53444;45.822;16.092;2022-08-19T02:49:41;22.43;66.75
66586;SHT30;53444;45.822;16.092;2022-08-19T02:52:08;22.70;66.10
66586;SHT30;53444;45.822;16.092;2022-08-19T02:54:36;22.79;65.64
66586;SHT30;53444;45.822;16.092;2022-08-19T02:57:04;22.94;64.95
66586;SHT30;53444;45.822;16.092;2022-08-19T02:59:31;23.11;64.14
66586;SHT30;53444;45.822;16.092;2022-08-19T03:02:00;23.32;63.36
66586;SHT30;53444;45.822;16.092;2022-08-19T03:04:27;23.44;63.02
66586;SHT30;53444;45.822;16.092;2022-08-19T03:06:54;23.42;62.59
66586;SHT30;53444;45.822;16.092;2022-08-19T03:09:22;23.55;62.31
66586;SHT30;53444;45.822;16.092;2022-08-19T03:11:48;23.61;62.06
66586;SHT30;53444;45.822;16.092;2022-08-19T03:14:15;23.73;61.42
66586;SHT30;53444;45.822;16.092;2022-08-19T03:16:48;23.83;60.95
66586;SHT30;53444;45.822;16.092;2022-08-19T03:19:19;23.95;60.61
66586;SHT30;53444;45.822;16.092;2022-08-19T03:21:46;23.99;60.97
66586;SHT30;53444;45.822;16.092;2022-08-19T03:24:14;23.92;61.42
66586;SHT30;53444;45.822;16.092;2022-08-19T03:26:43;23.73;62.88
66586;SHT30;53444;45.822;16.092;2022-08-19T03:29:10;23.28;64.70
66586;SHT30;53444;45.822;16.092;2022-08-19T03:31:39;22.60;66.39
66586;SHT30;53444;45.822;16.092;2022-08-19T03:34:06;22.69;66.47
66586;SHT30;53444;45.822;16.092;2022-08-19T03:36:35;22.70;66.36
66586;SHT30;53444;45.822;16.092;2022-08-19T03:39:02;22.81;66.16
66586;SHT30;53444;45.822;16.092;2022-08-19T03:41:31;22.87;65.79
66586;SHT30;53444;45.822;16.092;2022-08-19T03:43:58;22.83;65.78
66586;SHT30;53444;45.822;16.092;2022-08-19T03:46:27;22.86;65.70
66586;SHT30;53444;45.822;16.092;2022-08-19T03:48:55;23.07;65.02
66586;SHT30;53444;45.822;16.092;2022-08-19T03:51:24;23.24;64.56
66586;SHT30;53444;45.822;16.092;2022-08-19T03:53:54;23.21;65.04
66586;SHT30;53444;45.822;16.092;2022-08-19T03:56:21;23.12;65.76
66586;SHT30;53444;45.822;16.092;2022-08-19T03:58:50;22.90;66.89
66586;SHT30;53444;45.822;16.092;2022-08-19T04:01:19;22.64;68.08
66586;SHT30;53444;45.822;16.092;2022-08-19T04:03:47;22.96;67.04
66586;SHT30;53444;45.822;16.092;2022-08-19T04:06:16;23.15;66.91
66586;SHT30;53444;45.822;16.092;2022-08-19T04:08:44;23.18;67.25
66586;SHT30;53444;45.822;16.092;2022-08-19T04:11:15;23.28;67.81
66586;SHT30;53444;45.822;16.092;2022-08-19T04:13:42;23.32;68.02
66586;SHT30;53444;45.822;16.092;2022-08-19T04:16:10;23.47;67.79
66586;SHT30;53444;45.822;16.092;2022-08-19T04:18:39;23.51;68.06
66586;SHT30;53444;45.822;16.092;2022-08-19T04:21:07;23.48;67.99
66586;SHT30;53444;45.822;16.092;2022-08-19T04:23:34;23.35;68.72
66586;SHT30;53444;45.822;16.092;2022-08-19T04:26:02;23.44;68.61
66586;SHT30;53444;45.822;16.092;2022-08-19T04:28:30;23.48;68.72
66586;SHT30;53444;45.822;16.092;2022-08-19T04:30:57;23.42;69.36
66586;SHT30;53444;45.822;16.092;2022-08-19T04:33:24;23.50;69.51
66586;SHT30;53444;45.822;16.092;2022-08-19T04:35:53;23.55;69.11
66586;SHT30;53444;45.822;16.092;2022-08-19T04:38:21;23.54;69.61
66586;SHT30;53444;45.822;16.092;2022-08-19T04:40:50;23.66;69.06
66586;SHT30;53444;45.822;16.092;2022-08-19T04:43:37;23.52;69.48
66586;SHT30;53444;45.822;16.092;2022-08-19T04:46:05;23.73;68.74
66586;SHT30;53444;45.822;16.092;2022-08-19T04:48:33;23.79;68.60
66586;SHT30;53444;45.822;16.092;2022-08-19T04:51:00;23.76;68.61
66586;SHT30;53444;45.822;16.092;2022-08-19T04:53:32;23.83;68.32
66586;SHT30;53444;45.822;16.092;2022-08-19T04:56:02;23.96;67.46
66586;SHT30;53444;45.822;16.092;2022-08-19T04:58:29;23.79;67.09
66586;SHT30;53444;45.822;16.092;2022-08-19T05:00:57;23.76;67.80
66586;SHT30;53444;45.822;16.092;2022-08-19T05:03:26;23.76;68.27
66586;SHT30;53444;45.822;16.092;2022-08-19T05:05:56;23.79;67.73
66586;SHT30;53444;45.822;16.092;2022-08-19T05:08:23;23.73;67.65
66586;SHT30;53444;45.822;16.092;2022-08-19T05:10:51;23.78;67.58
66586;SHT30;53444;45.822;16.092;2022-08-19T05:13:19;23.82;67.36
66586;SHT30;53444;45.822;16.092;2022-08-19T05:15:53;23.79;67.31
66586;SHT30;53444;45.822;16.092;2022-08-19T05:18:22;23.88;67.35
66586;SHT30;53444;45.822;16.092;2022-08-19T05:21:07;23.88;67.45
66586;SHT30;53444;45.822;16.092;2022-08-19T05:23:52;23.90;67.51
66586;SHT30;53444;45.822;16.092;2022-08-19T05:26:18;23.96;66.99
66586;SHT30;53444;45.822;16.092;2022-08-19T05:28:45;23.95;66.64
66586;SHT30;53444;45.822;16.092;2022-08-19T05:31:12;23.92;66.75
66586;SHT30;53444;45.822;16.092;2022-08-19T05:33:40;23.95;67.23
66586;SHT30;53444;45.822;16.092;2022-08-19T05:36:07;23.99;67.71
66586;SHT30;53444;45.822;16.092;2022-08-19T05:38:34;23.98;68.00
66586;SHT30;53444;45.822;16.092;2022-08-19T05:41:01;23.83;68.33
66586;SHT30;53444;45.822;16.092;2022-08-19T05:43:32;23.92;67.45
66586;SHT30;53444;45.822;16.092;2022-08-19T05:45:58;23.89;67.50
66586;SHT30;53444;45.822;16.092;2022-08-19T05:48:25;24.03;67.11
66586;SHT30;53444;45.822;16.092;2022-08-19T05:50:53;24.08;67.07
66586;SHT30;53444;45.822;16.092;2022-08-19T05:53:20;23.99;67.33
66586;SHT30;53444;45.822;16.092;2022-08-19T05:55:46;23.81;69.11
66586;SHT30;53444;45.822;16.092;2022-08-19T05:58:13;23.92;69.37
66586;SHT30;53444;45.822;16.092;2022-08-19T06:00:42;23.90;69.35
66586;SHT30;53444;45.822;16.092;2022-08-19T06:03:09;24.10;68.05
66586;SHT30;53444;45.822;16.092;2022-08-19T06:05:36;24.02;67.87
66586;SHT30;53444;45.822;16.092;2022-08-19T06:08:04;23.98;67.73
66586;SHT30;53444;45.822;16.092;2022-08-19T06:10:32;23.95;67.45
66586;SHT30;53444;45.822;16.092;2022-08-19T06:12:59;24.00;67.64
66586;SHT30;53444;45.822;16.092;2022-08-19T06:15:26;24.06;67.47
66586;SHT30;53444;45.822;16.092;2022-08-19T06:17:52;24.10;67.17
66586;SHT30;53444;45.822;16.092;2022-08-19T06:20:19;24.00;67.66
66586;SHT30;53444;45.822;16.092;2022-08-19T06:22:48;23.69;69.50
66586;SHT30;53444;45.822;16.092;2022-08-19T06:25:18;23.90;68.79
66586;SHT30;53444;45.822;16.092;2022-08-19T06:27:45;23.92;69.59
66586;SHT30;53444;45.822;16.092;2022-08-19T06:30:12;24.10;68.49
66586;SHT30;53444;45.822;16.092;2022-08-19T06:32:40;24.16;67.80
66586;SHT30;53444;45.822;16.092;2022-08-19T06:35:09;24.14;68.03
66586;SHT30;53444;45.822;16.092;2022-08-19T06:37:38;24.14;67.65
66586;SHT30;53444;45.822;16.092;2022-08-19T06:40:06;23.82;69.35
66586;SHT30;53444;45.822;16.092;2022-08-19T06:42:35;24.02;68.85
66586;SHT30;53444;45.822;16.092;2022-08-19T06:45:04;24.00;69.25
66586;SHT30;53444;45.822;16.092;2022-08-19T06:47:33;24.30;69.40
66586;SHT30;53444;45.822;16.092;2022-08-19T06:50:00;24.30;69.40
66586;SHT30;53444;45.822;16.092;2022-08-19T06:52:28;24.14;69.32
66586;SHT30;53444;45.822;16.092;2022-08-19T06:54:55;24.20;69.19
66586;SHT30;53444;45.822;16.092;2022-08-19T06:57:23;24.54;67.26
66586;SHT30;53444;45.822;16.092;2022-08-19T06:59:52;24.80;66.61
66586;SHT30;53444;45.822;16.092;2022-08-19T07:02:19;24.94;65.84
66586;SHT30;53444;45.822;16.092;2022-08-19T07:04:45;25.04;65.12
66586;SHT30;53444;45.822;16.092;2022-08-19T07:07:14;25.12;64.78
66586;SHT30;53444;45.822;16.092;2022-08-19T07:09:43;25.01;65.56
66586;SHT30;53444;45.822;16.092;2022-08-19T07:12:12;24.94;65.73
66586;SHT30;53444;45.822;16.092;2022-08-19T07:14:41;24.88;65.65
66586;SHT30;53444;45.822;16.092;2022-08-19T07:17:10;24.88;65.47
66586;SHT30;53444;45.822;16.092;2022-08-19T07:19:38;24.71;66.57
66586;SHT30;53444;45.822;16.092;2022-08-19T07:22:07;24.77;66.82
66586;SHT30;53444;45.822;16.092;2022-08-19T07:24:35;24.77;67.80
66586;SHT30;53444;45.822;16.092;2022-08-19T07:27:04;24.88;67.59
66586;SHT30;53444;45.822;16.092;2022-08-19T07:29:33;24.85;68.49
66586;SHT30;53444;45.822;16.092;2022-08-19T07:32:04;24.83;69.12
66586;SHT30;53444;45.822;16.092;2022-08-19T07:34:33;24.88;68.67
66586;SHT30;53444;45.822;16.092;2022-08-19T07:37:03;24.91;69.71
66586;SHT30;53444;45.822;16.092;2022-08-19T07:39:32;24.94;68.54
66586;SHT30;53444;45.822;16.092;2022-08-19T07:42:00;25.18;68.01
66586;SHT30;53444;45.822;16.092;2022-08-19T07:44:28;25.26;68.51
66586;SHT30;53444;45.822;16.092;2022-08-19T07:46:57;25.45;67.93
66586;SHT30;53444;45.822;16.092;2022-08-19T07:49:25;25.41;68.11
66586;SHT30;53444;45.822;16.092;2022-08-19T07:51:57;25.56;66.86
66586;SHT30;53444;45.822;16.092;2022-08-19T07:54:25;25.21;68.30
66586;SHT30;53444;45.822;16.092;2022-08-19T07:56:52;25.14;68.55
66586;SHT30;53444;45.822;16.092;2022-08-19T07:59:20;25.05;69.41
66586;SHT30;53444;45.822;16.092;2022-08-19T08:01:47;25.11;68.72
66586;SHT30;53444;45.822;16.092;2022-08-19T08:04:16;25.24;68.36
66586;SHT30;53444;45.822;16.092;2022-08-19T08:07:02;25.28;67.85
66586;SHT30;53444;45.822;16.092;2022-08-19T08:09:47;25.24;67.68
66586;SHT30;53444;45.822;16.092;2022-08-19T08:12:16;25.26;67.59
66586;SHT30;53444;45.822;16.092;2022-08-19T08:14:45;25.26;67.55
66586;SHT30;53444;45.822;16.092;2022-08-19T08:17:13;25.15;67.90
66586;SHT30;53444;45.822;16.092;2022-08-19T08:19:41;25.41;66.74
66586;SHT30;53444;45.822;16.092;2022-08-19T08:22:10;25.69;65.82
66586;SHT30;53444;45.822;16.092;2022-08-19T08:25:00;25.41;66.35
66586;SHT30;53444;45.822;16.092;2022-08-19T08:27:27;25.66;65.98
66586;SHT30;53444;45.822;16.092;2022-08-19T08:29:54;25.83;65.63
66586;SHT30;53444;45.822;16.092;2022-08-19T08:32:21;25.87;64.97
66586;SHT30;53444;45.822;16.092;2022-08-19T08:34:48;25.89;64.47
66586;SHT30;53444;45.822;16.092;2022-08-19T08:37:16;25.82;64.71
66586;SHT30;53444;45.822;16.092;2022-08-19T08:39:42;26.10;64.11
66586;SHT30;53444;45.822;16.092;2022-08-19T08:42:17;26.27;63.72
66586;SHT30;53444;45.822;16.092;2022-08-19T08:44:48;26.37;62.89
66586;SHT30;53444;45.822;16.092;2022-08-19T08:47:20;26.10;65.07
66586;SHT30;53444;45.822;16.092;2022-08-19T08:49:51;25.63;66.35
66586;SHT30;53444;45.822;16.092;2022-08-19T08:52:22;25.82;65.18
66586;SHT30;53444;45.822;16.092;2022-08-19T08:54:52;25.74;65.84
66586;SHT30;53444;45.822;16.092;2022-08-19T08:57:24;25.96;65.07
66586;SHT30;53444;45.822;16.092;2022-08-19T08:59:54;25.58;66.18
66586;SHT30;53444;45.822;16.092;2022-08-19T09:02:22;25.72;65.95
66586;SHT30;53444;45.822;16.092;2022-08-19T09:04:49;25.87;65.07
66586;SHT30;53444;45.822;16.092;2022-08-19T09:07:38;25.66;65.31
66586;SHT30;53444;45.822;16.092;2022-08-19T09:10:10;25.59;65.36
66586;SHT30;53444;45.822;16.092;2022-08-19T09:12:47;25.61;64.82
66586;SHT30;53444;45.822;16.092;2022-08-19T09:15:22;25.63;64.65
66586;SHT30;53444;45.822;16.092;2022-08-19T09:17:52;25.61;65.37
66586;SHT30;53444;45.822;16.092;2022-08-19T09:20:22;26.10;63.70
66586;SHT30;53444;45.822;16.092;2022-08-19T09:22:50;26.40;61.90
66586;SHT30;53444;45.822;16.092;2022-08-19T09:25:20;26.49;60.49
66586;SHT30;53444;45.822;16.092;2022-08-19T09:27:47;26.00;60.68
66586;SHT30;53444;45.822;16.092;2022-08-19T09:30:19;26.06;61.27
66586;SHT30;53444;45.822;16.092;2022-08-19T09:32:47;26.17;61.09
66586;SHT30;53444;45.822;16.092;2022-08-19T09:35:14;26.16;61.31
66586;SHT30;53444;45.822;16.092;2022-08-19T09:37:41;26.37;60.87
66586;SHT30;53444;45.822;16.092;2022-08-19T09:40:11;26.59;61.81
66586;SHT30;53444;45.822;16.092;2022-08-19T09:42:38;26.58;61.20
66586;SHT30;53444;45.822;16.092;2022-08-19T09:45:06;26.48;61.25
66586;SHT30;53444;45.822;16.092;2022-08-19T09:47:33;26.40;61.01
66586;SHT30;53444;45.822;16.092;2022-08-19T09:50:01;26.27;61.10
66586;SHT30;53444;45.822;16.092;2022-08-19T09:52:28;26.27;62.00
66586;SHT30;53444;45.822;16.092;2022-08-19T09:54:54;26.12;62.99
66586;SHT30;53444;45.822;16.092;2022-08-19T09:57:22;25.92;64.88
66586;SHT30;53444;45.822;16.092;2022-08-19T09:59:49;25.80;64.47
66586;SHT30;53444;45.822;16.092;2022-08-19T10:02:16;25.72;65.86
66586;SHT30;53444;45.822;16.092;2022-08-19T10:04:43;25.61;67.78
66586;SHT30;53444;45.822;16.092;2022-08-19T10:07:29;25.29;71.13
66586;SHT30;53444;45.822;16.092;2022-08-19T10:09:56;25.21;71.64
66586;SHT30;53444;45.822;16.092;2022-08-19T10:12:24;25.07;72.09
66586;SHT30;53444;45.822;16.092;2022-08-19T10:14:50;24.81;73.07
66586;SHT30;53444;45.822;16.092;2022-08-19T10:17:19;24.95;72.47
66586;SHT30;53444;45.822;16.092;2022-08-19T10:19:46;24.81;73.13
66586;SHT30;53444;45.822;16.092;2022-08-19T10:22:13;24.92;72.41
66586;SHT30;53444;45.822;16.092;2022-08-19T10:24:40;24.95;72.19
66586;SHT30;53444;45.822;16.092;2022-08-19T10:27:07;25.04;71.85
66586;SHT30;53444;45.822;16.092;2022-08-19T10:29:36;25.32;71.08
66586;SHT30;53444;45.822;16.092;2022-08-19T10:32:05;25.43;71.02
66586;SHT30;53444;45.822;16.092;2022-08-19T10:34:34;25.61;71.38
66586;SHT30;53444;45.822;16.092;2022-08-19T10:37:02;25.80;71.35
66586;SHT30;53444;45.822;16.092;2022-08-19T10:39:31;25.97;70.83
66586;SHT30;53444;45.822;16.092;2022-08-19T10:41:58;26.20;69.58
66586;SHT30;53444;45.822;16.092;2022-08-19T10:44:25;26.49;68.72
66586;SHT30;53444;45.822;16.092;2022-08-19T10:46:56;26.52;68.24
66586;SHT30;53444;45.822;16.092;2022-08-19T10:49:24;26.89;67.65
66586;SHT30;53444;45.822;16.092;2022-08-19T10:51:51;27.19;67.79
66586;SHT30;53444;45.822;16.092;2022-08-19T10:54:35;27.73;65.99
66586;SHT30;53444;45.822;16.092;2022-08-19T10:57:19;28.08;64.58
66586;SHT30;53444;45.822;16.092;2022-08-19T10:59:49;28.00;63.67
66586;SHT30;53444;45.822;16.092;2022-08-19T11:02:17;27.71;63.65
66586;SHT30;53444;45.822;16.092;2022-08-19T11:04:44;27.78;63.46
66586;SHT30;53444;45.822;16.092;2022-08-19T11:07:10;28.04;62.15
66586;SHT30;53444;45.822;16.092;2022-08-19T11:09:40;27.97;61.84
66586;SHT30;53444;45.822;16.092;2022-08-19T11:12:08;27.97;61.13
66586;SHT30;53444;45.822;16.092;2022-08-19T11:14:36;28.93;59.97
66586;SHT30;53444;45.822;16.092;2022-08-19T11:17:03;29.24;57.27
66586;SHT30;53444;45.822;16.092;2022-08-19T11:19:31;29.77;54.19
66586;SHT30;53444;45.822;16.092;2022-08-19T11:21:58;30.30;53.92
66586;SHT30;53444;45.822;16.092;2022-08-19T11:24:28;30.73;52.28
66586;SHT30;53444;45.822;16.092;2022-08-19T11:27:01;30.79;52.23
66586;SHT30;53444;45.822;16.092;2022-08-19T11:29:30;31.20;50.61
66586;SHT30;53444;45.822;16.092;2022-08-19T11:31:58;31.37;50.55
66586;SHT30;53444;45.822;16.092;2022-08-19T11:34:27;31.41;48.95
66586;SHT30;53444;45.822;16.092;2022-08-19T11:36:56;31.61;47.51
66586;SHT30;53444;45.822;16.092;2022-08-19T11:39:26;31.83;47.75
66586;SHT30;53444;45.822;16.092;2022-08-19T11:41:53;31.82;47.17
66586;SHT30;53444;45.822;16.092;2022-08-19T11:44:20;32.17;46.47
66586;SHT30;53444;45.822;16.092;2022-08-19T11:46:47;31.65;45.91
66586;SHT30;53444;45.822;16.092;2022-08-19T11:49:14;31.22;47.54
66586;SHT30;53444;45.822;16.092;2022-08-19T11:51:42;31.04;47.72
66586;SHT30;53444;45.822;16.092;2022-08-19T11:54:11;31.21;47.49
66586;SHT30;53444;45.822;16.092;2022-08-19T11:56:39;31.14;48.27
66586;SHT30;53444;45.822;16.092;2022-08-19T11:59:06;31.37;47.41
66586;SHT30;53444;45.822;16.092;2022-08-19T12:01:33;30.88;47.14
66586;SHT30;53444;45.822;16.092;2022-08-19T12:04:00;30.74;47.15
66586;SHT30;53444;45.822;16.092;2022-08-19T12:06:31;30.60;46.78
66586;SHT30;53444;45.822;16.092;2022-08-19T12:09:05;30.49;47.12
66586;SHT30;53444;45.822;16.092;2022-08-19T12:11:34;31.51;45.23
66586;SHT30;53444;45.822;16.092;2022-08-19T12:14:02;31.86;44.15
66586;SHT30;53444;45.822;16.092;2022-08-19T12:16:30;32.59;42.56
66586;SHT30;53444;45.822;16.092;2022-08-19T12:18:58;32.70;42.49
66586;SHT30;53444;45.822;16.092;2022-08-19T12:21:29;32.05;43.10
66586;SHT30;53444;45.822;16.092;2022-08-19T12:23:57;31.57;44.57
66586;SHT30;53444;45.822;16.092;2022-08-19T12:26:25;32.57;42.59
66586;SHT30;53444;45.822;16.092;2022-08-19T12:28:54;32.26;42.42
66586;SHT30;53444;45.822;16.092;2022-08-19T12:31:20;31.95;43.25
66586;SHT30;53444;45.822;16.092;2022-08-19T12:33:47;31.46;43.98
66586;SHT30;53444;45.822;16.092;2022-08-19T12:36:15;31.49;43.56
66586;SHT30;53444;45.822;16.092;2022-08-19T12:38:43;31.30;44.40
66586;SHT30;53444;45.822;16.092;2022-08-19T12:41:13;31.75;43.45
66586;SHT30;53444;45.822;16.092;2022-08-19T12:43:40;31.92;43.33
66586;SHT30;53444;45.822;16.092;2022-08-19T12:46:09;31.38;43.81
66586;SHT30;53444;45.822;16.092;2022-08-19T12:48:37;31.37;43.54
66586;SHT30;53444;45.822;16.092;2022-08-19T12:51:07;31.83;42.94
66586;SHT30;53444;45.822;16.092;2022-08-19T12:53:34;32.90;40.75
66586;SHT30;53444;45.822;16.092;2022-08-19T12:56:01;33.58;39.54
66586;SHT30;53444;45.822;16.092;2022-08-19T12:58:28;33.99;38.52
66586;SHT30;53444;45.822;16.092;2022-08-19T13:00:55;34.04;38.66
66586;SHT30;53444;45.822;16.092;2022-08-19T13:03:23;34.44;37.97
66586;SHT30;53444;45.822;16.092;2022-08-19T13:05:54;34.53;37.99
66586;SHT30;53444;45.822;16.092;2022-08-19T13:08:21;35.04;36.81
66586;SHT30;53444;45.822;16.092;2022-08-19T13:10:48;34.81;36.80
66586;SHT30;53444;45.822;16.092;2022-08-19T13:13:16;34.98;36.79
66586;SHT30;53444;45.822;16.092;2022-08-19T13:15:43;35.89;34.63
66586;SHT30;53444;45.822;16.092;2022-08-19T13:18:11;34.81;36.62
66586;SHT30;53444;45.822;16.092;2022-08-19T13:20:40;34.68;37.23
66586;SHT30;53444;45.822;16.092;2022-08-19T13:23:07;35.49;35.36
66586;SHT30;53444;45.822;16.092;2022-08-19T13:25:36;36.11;34.06
66586;SHT30;53444;45.822;16.092;2022-08-19T13:28:03;36.43;32.96
66586;SHT30;53444;45.822;16.092;2022-08-19T13:30:32;36.03;33.83
66586;SHT30;53444;45.822;16.092;2022-08-19T13:33:16;35.75;34.70
66586;SHT30;53444;45.822;16.092;2022-08-19T13:35:47;35.67;35.00
66586;SHT30;53444;45.822;16.092;2022-08-19T13:38:18;34.36;36.85
66586;SHT30;53444;45.822;16.092;2022-08-19T13:40:46;34.21;36.70
66586;SHT30;53444;45.822;16.092;2022-08-19T13:43:14;33.97;37.54
66586;SHT30;53444;45.822;16.092;2022-08-19T13:45:41;33.00;37.55
66586;SHT30;53444;45.822;16.092;2022-08-19T13:48:08;32.87;37.55
66586;SHT30;53444;45.822;16.092;2022-08-19T13:50:39;32.63;38.76
66586;SHT30;53444;45.822;16.092;2022-08-19T13:53:08;32.49;39.38
66586;SHT30;53444;45.822;16.092;2022-08-19T13:55:37;32.05;41.38
66586;SHT30;53444;45.822;16.092;2022-08-19T13:58:04;32.37;40.75
66586;SHT30;53444;45.822;16.092;2022-08-19T14:00:35;32.13;40.79
66586;SHT30;53444;45.822;16.092;2022-08-19T14:03:03;32.09;41.25
66586;SHT30;53444;45.822;16.092;2022-08-19T14:05:31;31.85;41.79
66586;SHT30;53444;45.822;16.092;2022-08-19T14:07:58;32.24;40.92
66586;SHT30;53444;45.822;16.092;2022-08-19T14:10:27;32.83;40.20
66586;SHT30;53444;45.822;16.092;2022-08-19T14:12:57;32.39;40.75
66586;SHT30;53444;45.822;16.092;2022-08-19T14:15:25;32.23;40.42
66586;SHT30;53444;45.822;16.092;2022-08-19T14:17:52;31.89;40.85
66586;SHT30;53444;45.822;16.092;2022-08-19T14:20:19;31.55;40.06
66586;SHT30;53444;45.822;16.092;2022-08-19T14:22:47;31.58;40.37
66586;SHT30;53444;45.822;16.092;2022-08-19T14:25:17;31.61;41.51
66586;SHT30;53444;45.822;16.092;2022-08-19T14:27:46;31.52;41.53
66586;SHT30;53444;45.822;16.092;2022-08-19T14:30:15;31.82;40.28
66586;SHT30;53444;45.822;16.092;2022-08-19T14:32:42;31.81;39.78
66586;SHT30;53444;45.822;16.092;2022-08-19T14:35:10;31.71;39.65
66586;SHT30;53444;45.822;16.092;2022-08-19T14:37:37;31.68;39.79
66586;SHT30;53444;45.822;16.092;2022-08-19T14:40:05;31.58;40.17
66586;SHT30;53444;45.822;16.092;2022-08-19T14:42:33;31.30;41.09
66586;SHT30;53444;45.822;16.092;2022-08-19T14:45:02;31.24;41.14
66586;SHT30;53444;45.822;16.092;2022-08-19T14:47:30;31.18;41.48
66586;SHT30;53444;45.822;16.092;2022-08-19T14:49:57;31.13;41.56
66586;SHT30;53444;45.822;16.092;2022-08-19T14:52:23;31.10;41.41
66586;SHT30;53444;45.822;16.092;2022-08-19T14:54:50;31.15;41.33
66586;SHT30;53444;45.822;16.092;2022-08-19T14:57:17;31.18;41.07
66586;SHT30;53444;45.822;16.092;2022-08-19T14:59:43;31.35;40.59
66586;SHT30;53444;45.822;16.092;2022-08-19T15:02:12;31.35;40.82
66586;SHT30;53444;45.822;16.092;2022-08-19T15:04:38;31.46;40.44
66586;SHT30;53444;45.822;16.092;2022-08-19T15:07:05;31.37;41.63
66586;SHT30;53444;45.822;16.092;2022-08-19T15:09:32;31.22;42.01
66586;SHT30;53444;45.822;16.092;2022-08-19T15:11:59;31.32;41.96
66586;SHT30;53444;45.822;16.092;2022-08-19T15:14:27;31.20;42.92
66586;SHT30;53444;45.822;16.092;2022-08-19T15:16:59;31.30;43.14
66586;SHT30;53444;45.822;16.092;2022-08-19T15:19:27;31.13;44.40
66586;SHT30;53444;45.822;16.092;2022-08-19T15:21:54;31.14;44.70
66586;SHT30;53444;45.822;16.092;2022-08-19T15:24:21;30.88;45.69